Meteo Giornale » Osservazioni meteo Svizzera » Samedan

ore: 10:50 - Osservazioni Meteo Samedan
Lat. 46° 32' N Lon. 9° 53' E Alt. 1706 metri s.l.m.

poco_nuvoloso Europe/Zurich

17 °C

Poco Nuvoloso

Temp. 24 Ore

8 °C

20 °C

Nord

3.7 Km/h

Dew point 5 °C

Umidità 45 %

Visibilità  10 Km

Il sole sorge alle ore 05:25

Il sole tramonta alle ore 21:18

Data e Ora Cielo e Fenomeni T °C DP °C Um. % Pres. hPa Vis. km Vento km/h
Oggi h: 10:50 poco_nuvoloso Poco Nuvoloso 17 5 45 1022 10 N 3.7
Oggi h: 10:20 poco_nuvoloso Poco Nuvoloso 17 8 55 1022 10 N 3.7
Oggi h: 09:50 poco_nuvoloso Poco Nuvoloso 15 9 67 1022 10 N 3.7
Oggi h: 09:20 poco_nuvoloso Poco Nuvoloso 13 9 76 1023 10 N 5.5
Oggi h: 08:50 poco_nuvoloso Poco Nuvoloso 12 9 81 1023 10 N 3.7
Oggi h: 08:20 poco_nuvoloso Poco Nuvoloso 12 10 87 1023 10 N 3.7
Oggi h: 07:50 poco_nuvoloso Poco Nuvoloso 9 8 93 1023 10 N 3.7
Oggi h: 07:20 poco_nuvoloso Poco Nuvoloso 9 8 93 1023 10 S/SO 7.4
Oggi h: 06:50 molto_nuvoloso Molto Nuvoloso 10 8 87 1023 10 SO 7.4
Oggi h: 06:20 coperto Coperto 8 7 93 1023 10 N 3.7
Oggi h: 05:50 poco_nuvoloso Poco Nuvoloso 8 7 93 1023 10 N 1.8
Oggi h: 05:20 molto_nuvoloso Molto Nuvoloso 9 8 93 1023 10 N 1.8
Oggi h: 04:50 poco_nuvoloso Poco Nuvoloso 9 8 93 1023 10 N 1.8
Oggi h: 04:20 molto_nuvoloso Molto Nuvoloso 9 8 93 1023 10 N 3.7
Oggi h: 03:50 molto_nuvoloso Molto Nuvoloso 9 8 93 1023 10 N 3.7
Oggi h: 03:20 nuvoloso Nuvoloso 9 8 93 1023 10 N 3.7
Oggi h: 02:50 molto_nuvoloso Molto Nuvoloso 8 7 93 1024 10 N 3.7
Oggi h: 02:20 molto_nuvoloso Molto Nuvoloso 8 7 93 1024 10 N 3.7
Oggi h: 01:50 molto_nuvoloso Molto Nuvoloso 9 7 87 1024 10 N 1.8
Oggi h: 01:20 poco_nuvoloso Poco Nuvoloso 10 8 87 1024 10 N 1.8
Oggi h: 00:50 molto_nuvoloso Molto Nuvoloso 10 8 87 1024 10 N 1.8
Oggi h: 00:20 sereno Sereno 9 7 87 1023 10 N 5.5
Ieri h: 23:50 poco_nuvoloso Poco Nuvoloso 11 7 76 1023 10 S 7.4
Ieri h: 23:20 nuvoloso Nuvoloso 12 8 76 1023 10 S 7.4
Ieri h: 22:50 molto_nuvoloso Molto Nuvoloso 12 8 76 1023 10 S 7.4
Ieri h: 22:20 sereno Sereno 12 8 76 1023 10 S 9.3
Ieri h: 21:50 poco_nuvoloso Poco Nuvoloso 13 9 76 1022 10 S 11.1
Ieri h: 21:20 molto_nuvoloso Molto Nuvoloso 15 8 62 1022 10 S 13
Ieri h: 20:50 molto_nuvoloso Molto Nuvoloso 15 7 58 1022 10 S/SO 13
Ieri h: 20:20 nuvoloso Nuvoloso 16 7 55 1022 10 S/SO 13
Ieri h: 19:50 molto_nuvoloso Molto Nuvoloso 16 8 58 1021 10 S/SO 16.7
Ieri h: 19:20 sereno Sereno 17 7 51 1021 10 SO 22.2
Ieri h: 18:50 nuvoloso Nuvoloso 18 8 51 1021 10 SO 20.3
Ieri h: 18:20 nuvoloso Nuvoloso 18 8 51 1021 10 SO 22.2
Ieri h: 17:20 nuvoloso Nuvoloso 19 8 48 1021 10 SO 22.2
Ieri h: 16:50 nuvoloso Nuvoloso 19 9 52 1022 10 SO 20.3
Ieri h: 16:20 nuvoloso Nuvoloso 19 6 42 1022 10 S/SO 18.5
Ieri h: 15:50 nuvoloso Nuvoloso 20 8 45 1022 10 SO 14.8
Ieri h: 15:20 nuvoloso Nuvoloso 19 7 45 1022 10 S/SO 16.7
Ieri h: 14:50 nuvoloso Nuvoloso 19 7 45 1022 10 S/SO 16.7
Ieri h: 14:20 nuvoloso Nuvoloso 19 8 48 1022 10 S/SO 16.7
Ieri h: 13:50 nuvoloso Nuvoloso 20 10 52 1023 10 SO 16.7
Ieri h: 13:20 nuvoloso Nuvoloso 18 8 51 1023 10 SO 20.3
Ieri h: 12:50 poco_nuvoloso Poco Nuvoloso 18 6 45 1023 10 S/SO 18.5
Ieri h: 12:20 poco_nuvoloso Poco Nuvoloso 19 8 48 1023 10 S/SO 7.4
Ieri h: 11:50 poco_nuvoloso Poco Nuvoloso 18 6 45 1023 10 N 5.5